Time;durP1;ratioP1;P1;durP2;ratioP2;P2;SDS_P1;SDS_P2;PMS_P1;PMS_P2;Temp;Humidity;BMP_temperature;BMP_pressure;BME280_temperature;BME280_humidity;BME280_pressure;Samples;Min_cycle;Max_cycle;Signal;HPM_P1;HPM_P2
2021/04/11 00:03:46;;;;;;;59.80;37.40;;;;;;;6.39;60.36;99583.94;481051;1171;114220;-70
2021/04/11 00:13:52;;;;;;;63.47;42.80;;;;;;;6.33;60.65;99577.25;471598;1171;114417;-68
2021/04/11 00:23:55;;;;;;;68.75;44.90;;;;;;;6.21;60.70;99583.86;472416;1171;114618;-69
2021/04/11 00:34:00;;;;;;;70.33;46.17;;;;;;;6.08;60.71;99580.99;472679;1171;113903;-69
2021/04/11 00:44:06;;;;;;;61.40;42.70;;;;;;;5.95;61.25;99583.27;471106;1170;114213;-68
2021/04/11 00:54:10;;;;;;;69.55;47.05;;;;;;;5.79;61.55;99590.09;471478;1170;114417;-69
2021/04/11 01:04:15;;;;;;;78.23;47.70;;;;;;;5.56;61.46;99586.73;471184;1171;113974;-68
2021/04/11 01:14:20;;;;;;;74.20;45.20;;;;;;;5.25;61.95;99578.48;471139;1170;114145;-70
2021/04/11 01:24:31;;;;;;;69.97;47.17;;;;;;;4.94;62.63;99569.34;471277;1170;114043;-69
2021/04/11 01:34:35;;;;;;;62.77;41.50;;;;;;;4.73;62.79;99571.03;471430;1170;114493;-69
2021/04/11 01:44:42;;;;;;;64.03;43.20;;;;;;;4.47;63.06;99558.19;471232;1171;114012;-69
2021/04/11 01:54:47;;;;;;;75.50;44.40;;;;;;;4.34;63.50;99554.38;471812;1170;114410;-68
2021/04/11 02:04:51;;;;;;;49.17;29.77;;;;;;;4.34;64.50;99552.61;472111;1170;114043;-69
2021/04/11 02:14:55;;;;;;;34.80;21.75;;;;;;;4.56;65.08;99548.30;471237;1170;113985;-68
2021/04/11 02:25:00;;;;;;;40.15;26.75;;;;;;;4.58;64.20;99541.31;471619;1171;114252;-69
2021/04/11 02:35:08;;;;;;;30.90;22.70;;;;;;;4.65;64.19;99528.91;471677;1170;113981;-68
2021/04/11 02:45:16;;;;;;;48.10;31.87;;;;;;;4.62;64.40;99542.87;471552;1171;115173;-70
2021/04/11 02:55:21;;;;;;;47.05;31.65;;;;;;;4.40;64.68;99537.69;471711;1171;115110;-69
2021/04/11 03:05:26;;;;;;;51.60;32.13;;;;;;;4.20;64.36;99534.94;471818;1170;114849;-69
2021/04/11 03:15:31;;;;;;;49.60;33.95;;;;;;;4.00;64.02;99553.89;471474;1171;114583;-69
2021/04/11 03:25:37;;;;;;;31.67;23.33;;;;;;;4.03;65.57;99545.14;471177;1171;114193;-69
2021/04/11 03:35:44;;;;;;;38.20;25.30;;;;;;;4.07;65.90;99554.51;471239;1170;114325;-70
2021/04/11 03:45:48;;;;;;;36.50;28.27;;;;;;;4.20;66.04;99571.33;471333;1171;114472;-68
2021/04/11 03:55:59;;;;;;;40.80;28.90;;;;;;;4.42;66.17;99578.30;471431;1171;114076;-68
2021/04/11 04:06:07;;;;;;;38.77;27.57;;;;;;;4.66;66.15;99570.44;471446;1169;114967;-69
2021/04/11 04:16:16;;;;;;;39.30;28.95;;;;;;;4.91;66.17;99570.30;471408;1170;113996;-69
2021/04/11 04:26:47;;;;;;;43.53;30.97;;;;;;;5.27;66.13;99579.26;471663;1171;115589;-69
2021/04/11 04:37:03;;;;;;;42.25;28.65;;;;;;;5.58;65.38;99574.48;471951;1170;113997;-69
2021/04/11 04:47:12;;;;;;;43.90;28.80;;;;;;;5.94;65.41;99568.55;471973;1170;114878;-68
2021/04/11 04:57:21;;;;;;;36.67;28.77;;;;;;;6.38;64.53;99572.64;471649;1171;114479;-68
2021/04/11 05:07:30;;;;;;;42.50;30.65;;;;;;;6.90;63.77;99563.24;471500;1171;114021;-69
2021/04/11 05:17:38;;;;;;;40.53;29.23;;;;;;;8.35;63.02;99550.55;471573;1171;113979;-70
2021/04/11 05:27:54;;;;;;;34.78;28.50;;;;;;;16.65;54.81;99545.47;471453;1170;114187;-68
2021/04/11 05:38:20;;;;;;;31.77;26.43;;;;;;;22.24;46.04;99524.58;471371;1169;114468;-67
2021/04/11 05:48:30;;;;;;;30.40;25.75;;;;;;;25.90;39.56;99512.59;471572;1170;114781;-68
2021/04/11 05:58:40;;;;;;;29.53;25.80;;;;;;;30.02;33.75;99504.34;471886;1171;115382;-68
2021/04/11 06:08:52;;;;;;;27.53;24.53;;;;;;;32.08;29.07;99509.36;472184;1171;114645;-68
2021/04/11 06:18:57;;;;;;;27.13;24.20;;;;;;;33.23;26.53;99507.45;471865;1170;115597;-68
2021/04/11 06:29:07;;;;;;;25.83;23.17;;;;;;;33.96;23.76;99515.45;471754;1171;115448;-68
2021/04/11 06:39:16;;;;;;;23.65;21.25;;;;;;;34.61;22.17;99511.19;470801;1171;114482;-69
2021/04/11 06:49:41;;;;;;;23.13;20.75;;;;;;;36.65;20.80;99496.19;471416;1170;114379;-67
2021/04/11 06:59:59;;;;;;;22.45;19.73;;;;;;;37.86;18.78;99503.77;471274;1170;114604;-68
2021/04/11 07:10:26;;;;;;;21.17;19.03;;;;;;;38.81;18.09;99503.61;471463;1170;114746;-67
2021/04/11 07:21:14;;;;;;;21.08;19.13;;;;;;;40.05;16.68;99495.02;471731;1171;114746;-68
2021/04/11 07:31:40;;;;;;;19.70;17.80;;;;;;;41.51;16.12;99482.22;471455;1171;114648;-69
2021/04/11 07:42:24;;;;;;;18.90;17.10;;;;;;;42.33;14.46;99474.02;471419;1171;114348;-70
2021/04/11 07:52:51;;;;;;;15.03;13.50;;;;;;;42.14;13.62;99468.70;471112;1171;114832;-69
2021/04/11 08:03:26;;;;;;;14.68;13.25;;;;;;;43.01;13.18;99462.02;471237;1171;114365;-70
2021/04/11 08:13:53;;;;;;;13.73;12.43;;;;;;;42.84;12.88;99447.02;471331;1170;114780;-68
2021/04/11 08:24:29;;;;;;;13.00;12.00;;;;;;;43.19;12.38;99435.27;471511;1170;114783;-68
2021/04/11 08:34:50;;;;;;;13.45;11.95;;;;;;;36.08;13.31;99424.30;471485;1171;115091;-70
2021/04/11 08:45:12;;;;;;;15.15;12.45;;;;;;;28.83;16.99;99419.80;471760;1170;114273;-69
2021/04/11 08:55:28;;;;;;;11.97;10.57;;;;;;;24.37;19.51;99421.70;471362;1171;114511;-69
2021/04/11 09:05:47;;;;;;;10.50;7.90;;;;;;;22.13;22.29;99410.02;455969;1170;20001917;-79
2021/04/11 09:16:02;;;;;;;10.80;8.10;;;;;;;20.98;23.94;99403.20;472443;1171;115440;-77
2021/04/11 09:26:31;;;;;;;12.23;7.43;;;;;;;20.65;24.81;99394.38;471147;1171;114460;-75
2021/04/11 09:36:43;;;;;;;9.43;6.30;;;;;;;20.01;25.67;99402.06;471169;1171;115721;-74
2021/04/11 09:46:59;;;;;;;8.37;5.97;;;;;;;19.66;27.08;99393.30;471464;1172;114914;-77
2021/04/11 09:57:19;;;;;;;7.60;4.83;;;;;;;19.12;27.57;99391.76;471702;1171;115456;-76
2021/04/11 10:07:41;;;;;;;12.70;6.65;;;;;;;18.55;28.22;99402.86;471644;1170;115241;-76
2021/04/11 10:18:08;;;;;;;6.30;4.15;;;;;;;18.24;28.76;99374.05;471376;1171;115440;-76
2021/04/11 10:28:23;;;;;;;4.80;3.73;;;;;;;17.94;29.57;99376.91;471522;1170;114020;-73
2021/04/11 10:38:33;;;;;;;3.87;2.67;;;;;;;17.98;28.33;99341.08;471450;1171;114007;-77
2021/04/11 10:49:18;;;;;;;4.63;2.67;;;;;;;18.32;28.15;99348.36;463519;1170;10002018;-76
2021/04/11 10:59:43;;;;;;;3.67;3.07;;;;;;;18.24;28.42;99344.81;470886;1171;117973;-77
2021/04/11 11:09:51;;;;;;;4.38;2.10;;;;;;;18.37;28.26;99349.73;471221;1171;115184;-76
2021/04/11 11:20:14;;;;;;;4.30;2.20;;;;;;;18.74;27.73;99324.70;472544;1171;114379;-76
2021/04/11 11:30:31;;;;;;;4.53;2.60;;;;;;;18.98;27.38;99317.84;472728;1171;114340;-77
2021/04/11 11:40:40;;;;;;;5.65;3.10;;;;;;;19.08;27.65;99315.07;472693;1171;117455;-76
2021/04/11 11:50:56;;;;;;;9.50;5.00;;;;;;;19.15;28.14;99286.83;471981;1170;115886;-69
2021/04/11 12:01:05;;;;;;;4.50;3.30;;;;;;;19.11;28.29;99286.31;470261;1171;114445;-74
2021/04/11 12:11:15;;;;;;;5.47;3.60;;;;;;;19.10;28.77;99281.14;469739;1171;115104;-77
2021/04/11 12:21:24;;;;;;;4.30;3.07;;;;;;;19.59;28.40;99275.09;470600;1171;114546;-75
2021/04/11 12:31:33;;;;;;;4.75;3.25;;;;;;;19.41;28.41;99269.92;471041;1171;114794;-77
2021/04/11 12:41:44;;;;;;;5.03;3.47;;;;;;;19.32;28.95;99277.88;471385;1171;114238;-76
2021/04/11 12:51:57;;;;;;;4.23;3.27;;;;;;;19.60;28.91;99256.30;471635;1171;114047;-76
2021/04/11 13:02:15;;;;;;;4.13;3.10;;;;;;;19.97;28.39;99259.51;471134;1170;114004;-77
2021/04/11 13:12:26;;;;;;;;;;;;;;;19.93;28.17;99246.69;472596;1170;114005;-76
2021/04/11 13:22:35;;;;;;;4.50;2.70;;;;;;;20.01;28.16;99239.51;472289;1170;100872;-73
2021/04/11 13:32:55;;;;;;;4.73;2.27;;;;;;;19.58;28.12;99236.16;471912;1170;116161;-74
2021/04/11 13:43:21;;;;;;;;;;;;;;;19.43;28.10;99225.32;471116;1171;115393;-74
2021/04/11 13:53:50;;;;;;;3.10;2.45;;;;;;;18.96;27.92;99221.39;471018;1171;100657;-74
2021/04/11 14:04:00;;;;;;;2.60;1.70;;;;;;;18.75;28.45;99217.34;470892;1170;114528;-76
2021/04/11 14:14:20;;;;;;;4.80;3.23;;;;;;;18.84;28.28;99219.03;463902;1170;10001860;-74
2021/04/11 14:24:32;;;;;;;3.67;2.30;;;;;;;18.66;28.50;99219.14;486602;1171;114865;-75
2021/04/11 14:34:43;;;;;;;4.80;3.50;;;;;;;18.19;29.19;99217.73;465159;1170;10002211;-75
2021/04/11 14:44:53;;;;;;;3.40;1.90;;;;;;;17.72;29.75;99238.30;471305;1171;114561;-68
2021/04/11 14:55:05;;;;;;;4.47;2.03;;;;;;;17.42;30.29;99235.03;471167;1171;115452;-69
2021/04/11 15:05:16;;;;;;;2.30;2.00;;;;;;;17.32;30.92;99239.61;471753;1171;115221;-69
2021/04/11 15:15:28;;;;;;;3.30;1.50;;;;;;;17.27;31.10;99242.71;471582;1169;115734;-68
2021/04/11 15:25:51;;;;;;;7.20;3.20;;;;;;;17.18;31.99;99238.30;471562;1170;114100;-68
2021/04/11 15:36:06;;;;;;;8.23;4.13;;;;;;;17.02;32.52;99246.91;471515;1170;114768;-69
2021/04/11 15:46:22;;;;;;;5.43;3.53;;;;;;;16.93;33.01;99248.61;471517;1170;114430;-67
2021/04/11 15:56:33;;;;;;;5.20;3.40;;;;;;;16.78;33.57;99250.91;471742;1170;114442;-68
2021/04/11 16:06:42;;;;;;;17.95;7.25;;;;;;;16.67;34.28;99262.52;471216;1170;114187;-68
2021/04/11 16:17:02;;;;;;;5.50;3.10;;;;;;;16.42;34.38;99262.20;471371;1170;115572;-67
2021/04/11 16:27:15;;;;;;;8.50;3.80;;;;;;;16.26;35.22;99273.40;472649;1170;114466;-68
2021/04/11 16:37:51;;;;;;;3.70;2.40;;;;;;;15.94;35.60;99274.59;471467;1171;114008;-67
2021/04/11 16:48:09;;;;;;;9.35;2.90;;;;;;;15.65;36.22;99285.98;471872;1171;115392;-66
2021/04/11 16:58:23;;;;;;;4.60;2.17;;;;;;;15.39;36.92;99299.75;471503;1171;115688;-66
2021/04/11 17:08:33;;;;;;;4.15;2.35;;;;;;;15.11;37.36;99292.45;471298;1170;114432;-68
2021/04/11 17:18:40;;;;;;;3.20;2.47;;;;;;;14.84;38.03;99304.47;471046;1170;114420;-67
2021/04/11 17:28:55;;;;;;;5.50;3.87;;;;;;;14.53;38.81;99312.35;455040;1170;10001948;-63
2021/04/11 17:39:10;;;;;;;7.95;4.45;;;;;;;14.21;39.57;99333.57;470165;1171;114827;-61
2021/04/11 17:49:37;;;;;;;7.10;4.30;;;;;;;13.89;40.53;99343.17;471237;1171;114456;-70
2021/04/11 17:59:57;;;;;;;12.00;5.83;;;;;;;13.56;41.41;99352.86;471277;1171;113970;-64
2021/04/11 18:10:13;;;;;;;7.13;4.87;;;;;;;13.19;42.23;99367.16;471724;1171;115443;-65
2021/04/11 18:20:23;;;;;;;8.03;5.70;;;;;;;12.89;42.82;99379.13;471091;1169;114527;-64
2021/04/11 18:30:33;;;;;;;6.37;4.20;;;;;;;12.69;43.52;99378.86;471658;1170;114981;-62
2021/04/11 18:40:46;;;;;;;5.25;4.00;;;;;;;12.51;43.91;99388.17;471136;1171;115046;-65
2021/04/11 18:51:12;;;;;;;6.20;3.50;;;;;;;12.44;44.12;99391.26;471411;1170;113954;-61
2021/04/11 19:01:20;;;;;;;6.70;3.90;;;;;;;12.38;44.46;99397.00;471443;1170;114186;-60
2021/04/11 19:11:37;;;;;;;6.40;4.25;;;;;;;12.38;44.37;99398.78;471087;1171;114515;-60
2021/04/11 19:22:30;;;;;;;4.17;3.50;;;;;;;12.28;44.56;99403.91;471413;1170;114080;-62
2021/04/11 19:33:09;;;;;;;6.47;3.20;;;;;;;12.13;44.89;99398.83;471158;1171;114391;-63
2021/04/11 19:43:40;;;;;;;6.10;2.65;;;;;;;11.97;45.23;99409.61;471289;1170;115124;-63
2021/04/11 19:53:53;;;;;;;7.23;3.03;;;;;;;11.77;45.60;99406.63;471418;1171;113967;-63
2021/04/11 20:04:08;;;;;;;7.65;3.40;;;;;;;11.53;46.27;99416.27;471624;1171;114474;-64
2021/04/11 20:14:50;;;;;;;7.30;4.75;;;;;;;11.34;46.79;99414.92;471745;1170;114422;-63
2021/04/11 20:25:10;;;;;;;7.90;3.85;;;;;;;11.18;47.83;99404.64;471092;1171;115026;-63
2021/04/11 20:35:32;;;;;;;6.07;4.20;;;;;;;11.06;48.29;99406.35;471498;1171;114374;-63
2021/04/11 20:45:51;;;;;;;7.13;4.73;;;;;;;10.93;48.46;99408.97;471360;1170;114472;-63
2021/04/11 20:56:21;;;;;;;8.70;3.70;;;;;;;10.76;49.47;99405.72;471544;1170;115444;-63
2021/04/11 21:06:45;;;;;;;5.63;3.63;;;;;;;10.59;49.80;99413.88;471550;1170;114438;-63
2021/04/11 21:17:22;;;;;;;5.55;3.75;;;;;;;10.49;50.61;99403.99;471636;1171;114912;-63
2021/04/11 21:27:53;;;;;;;13.73;6.47;;;;;;;10.37;51.11;99410.88;471600;1171;114034;-63
2021/04/11 21:38:05;;;;;;;9.70;4.70;;;;;;;10.24;51.84;99420.52;471846;1171;114814;-64
2021/04/11 21:48:48;;;;;;;6.05;3.80;;;;;;;10.11;52.27;99419.64;463961;1170;10001660;-63
2021/04/11 21:59:33;;;;;;;4.70;4.10;;;;;;;10.00;53.07;99420.31;476064;1171;115253;-63
2021/04/11 22:09:51;;;;;;;8.13;4.00;;;;;;;9.88;53.41;99416.71;471218;1170;114419;-62
2021/04/11 22:19:59;;;;;;;;;;;;;;;9.74;53.98;99422.83;473530;1170;115037;-62
2021/04/11 22:30:12;;;;;;;6.00;4.63;;;;;;;9.58;54.57;99420.33;471696;1171;100765;-63
2021/04/11 22:40:22;;;;;;;5.45;4.10;;;;;;;9.46;54.89;99422.78;471231;1170;115867;-64
2021/04/11 22:50:33;;;;;;;8.05;5.40;;;;;;;9.29;55.31;99431.68;471192;1170;113911;-64
2021/04/11 23:00:43;;;;;;;8.27;5.27;;;;;;;9.03;56.18;99423.64;470939;1171;113862;-63
2021/04/11 23:11:00;;;;;;;6.30;4.50;;;;;;;8.77;57.04;99418.19;470985;1171;114014;-61
2021/04/11 23:21:12;;;;;;;7.37;5.20;;;;;;;8.61;57.97;99423.48;471571;1171;113797;-64
2021/04/11 23:31:29;;;;;;;8.60;5.80;;;;;;;8.46;58.48;99403.39;471571;1171;114046;-62
2021/04/11 23:41:42;;;;;;;8.77;5.53;;;;;;;8.33;59.23;99409.34;471499;1173;113796;-62
2021/04/11 23:51:56;;;;;;;8.55;6.80;;;;;;;8.18;60.16;99400.59;470858;1171;113858;-62
